Time;durP1;ratioP1;P1;durP2;ratioP2;P2;SDS_P1;SDS_P2;PMS_P1;PMS_P2;Temp;Humidity;BMP_temperature;BMP_pressure;BME280_temperature;BME280_humidity;BME280_pressure;Samples;Min_cycle;Max_cycle;Signal;HPM_P1;HPM_P2
2021/12/22 00:00:47;;;;;;;19.13;11.10;;;1.10;99.90;;;;;;4994883;28;20291;-78
2021/12/22 00:03:13;;;;;;;16.90;11.48;;;1.20;99.90;;;;;;4996074;28;20272;-77
2021/12/22 00:05:44;;;;;;;22.23;11.10;;;1.40;99.90;;;;;;4994803;28;20173;-78
2021/12/22 00:08:13;;;;;;;22.00;10.85;;;1.50;99.90;;;;;;4995966;28;20224;-78
2021/12/22 00:10:43;;;;;;;24.13;11.32;;;1.50;99.90;;;;;;4997569;28;20177;-77
2021/12/22 00:13:08;;;;;;;17.33;10.98;;;1.50;99.90;;;;;;4998828;28;20173;-78
2021/12/22 00:15:34;;;;;;;16.27;10.35;;;1.40;99.90;;;;;;4996897;28;20272;-77
2021/12/22 00:18:00;;;;;;;24.17;11.23;;;1.30;99.90;;;;;;4999045;28;20276;-78
2021/12/22 00:20:25;;;;;;;17.57;10.13;;;1.20;99.90;;;;;;4998708;28;20179;-77
2021/12/22 00:22:51;;;;;;;26.73;11.55;;;1.30;99.90;;;;;;4997733;28;20177;-79
2021/12/22 00:25:17;;;;;;;21.20;11.50;;;1.40;99.90;;;;;;4978968;28;20265;-77
2021/12/22 00:27:42;;;;;;;16.10;11.55;;;1.30;99.90;;;;;;4979129;28;20204;-77
2021/12/22 00:30:09;;;;;;;27.10;10.53;;;1.10;99.90;;;;;;4978752;28;20201;-77
2021/12/22 00:32:37;;;;;;;20.52;11.57;;;1.10;99.90;;;;;;4991563;28;20169;-77
2021/12/22 00:35:04;;;;;;;23.02;11.90;;;1.20;99.90;;;;;;4998317;28;20177;-77
2021/12/22 00:37:32;;;;;;;19.30;12.05;;;1.20;99.90;;;;;;4999521;28;20188;-77
2021/12/22 00:39:58;;;;;;;22.15;11.88;;;1.20;99.90;;;;;;4997414;28;20622;-77
2021/12/22 00:42:26;;;;;;;19.95;11.05;;;1.10;99.90;;;;;;4997356;28;20205;-77
2021/12/22 00:44:54;;;;;;;27.52;11.73;;;1.10;99.90;;;;;;4996864;28;20244;-76
2021/12/22 00:47:22;;;;;;;16.58;10.88;;;1.10;99.90;;;;;;4996103;28;20213;-77
2021/12/22 00:49:48;;;;;;;21.73;11.68;;;1.00;99.90;;;;;;4997709;28;20201;-78
2021/12/22 00:52:14;;;;;;;18.95;11.68;;;0.90;99.90;;;;;;4997279;28;20199;-77
2021/12/22 00:54:40;;;;;;;18.27;11.00;;;0.60;99.90;;;;;;4997274;28;20169;-77
2021/12/22 00:57:06;;;;;;;17.98;11.10;;;0.60;99.90;;;;;;4996912;28;20526;-78
2021/12/22 00:59:34;;;;;;;20.08;12.20;;;0.70;99.90;;;;;;4995010;28;20173;-78
2021/12/22 01:02:00;;;;;;;17.50;10.82;;;0.60;99.90;;;;;;4995087;28;20169;-76
2021/12/22 01:04:26;;;;;;;18.65;11.55;;;0.60;99.90;;;;;;4996185;28;20165;-77
2021/12/22 01:06:52;;;;;;;19.98;12.82;;;0.60;99.90;;;;;;4995035;28;20641;-77
2021/12/22 01:09:17;;;;;;;24.92;12.88;;;0.80;99.90;;;;;;4995998;28;20267;-77
2021/12/22 01:11:43;;;;;;;26.03;12.93;;;0.70;99.90;;;;;;4995655;28;20169;-77
2021/12/22 01:14:09;;;;;;;18.95;10.73;;;0.80;99.90;;;;;;4995898;28;20248;-77
2021/12/22 01:16:35;;;;;;;20.63;12.65;;;0.80;99.90;;;;;;4995219;28;20538;-76
2021/12/22 01:19:04;;;;;;;23.15;13.13;;;0.60;99.90;;;;;;4996823;28;20185;-77
2021/12/22 01:27:09;;;;;;;20.90;12.10;;;0.40;99.90;;;;;;4984570;28;20267;-78
2021/12/22 01:29:38;;;;;;;20.20;11.95;;;0.40;99.90;;;;;;4996408;28;20204;-77
2021/12/22 01:32:06;;;;;;;26.00;12.20;;;0.50;99.90;;;;;;4996638;28;20161;-76
2021/12/22 01:34:31;;;;;;;27.08;11.70;;;0.40;99.90;;;;;;4994980;28;20173;-77
2021/12/22 01:36:57;;;;;;;17.70;11.53;;;0.50;99.90;;;;;;4995909;28;20177;-76
2021/12/22 01:39:23;;;;;;;23.47;12.47;;;0.60;99.90;;;;;;4995434;28;20236;-77
2021/12/22 01:41:49;;;;;;;25.67;12.32;;;0.70;99.90;;;;;;4995496;28;20165;-86
2021/12/22 01:44:34;;;;;;;21.80;10.95;;;0.50;99.90;;;;;;4996496;28;20537;-78
2021/12/22 01:49:53;;;;;;;15.90;10.13;;;0.50;99.90;;;;;;4996945;28;20215;-77
2021/12/22 01:52:20;;;;;;;17.02;10.80;;;0.30;99.90;;;;;;4995516;28;20201;-77
2021/12/22 01:55:03;;;;;;;17.20;10.40;;;0.50;99.90;;;;;;4998352;28;20275;-86
2021/12/22 01:57:29;;;;;;;21.02;10.38;;;0.70;99.90;;;;;;4997123;28;20240;-78
2021/12/22 01:59:55;;;;;;;15.30;10.50;;;0.80;99.90;;;;;;4996010;28;20256;-78
2021/12/22 02:02:21;;;;;;;15.35;10.05;;;0.70;99.90;;;;;;4996678;28;20209;-79
2021/12/22 02:04:46;;;;;;;17.60;10.43;;;0.70;99.90;;;;;;4996039;28;20180;-77
2021/12/22 02:07:12;;;;;;;19.57;11.50;;;0.70;99.90;;;;;;4998225;28;20181;-78
2021/12/22 02:10:05;;;;;;;18.67;10.63;;;0.70;99.90;;;;;;4997193;28;20216;-87
2021/12/22 02:12:35;;;;;;;18.92;10.27;;;0.60;99.90;;;;;;4996573;28;20170;-78
2021/12/22 02:15:04;;;;;;;14.53;9.47;;;0.60;99.90;;;;;;4997376;28;20188;-77
2021/12/22 02:17:29;;;;;;;20.67;11.13;;;0.40;99.90;;;;;;4997921;28;20685;-86
2021/12/22 02:19:56;;;;;;;16.40;10.98;;;0.50;99.90;;;;;;4997425;28;20216;-78
2021/12/22 02:22:22;;;;;;;19.88;10.75;;;0.60;99.90;;;;;;4996891;28;20184;-79
2021/12/22 02:24:52;;;;;;;26.27;11.10;;;0.90;99.90;;;;;;4998013;28;20268;-78
2021/12/22 02:27:27;;;;;;;22.53;10.63;;;0.90;99.90;;;;;;4998643;28;20240;-87
2021/12/22 02:29:59;;;;;;;19.50;11.05;;;0.80;99.90;;;;;;4995956;28;20215;-78
2021/12/22 02:35:12;;;;;;;15.80;9.73;;;0.50;99.90;;;;;;4959581;28;20196;-76
2021/12/22 02:37:46;;;;;;;18.75;9.90;;;0.40;99.90;;;;;;4978367;28;20189;-76
2021/12/22 02:40:16;;;;;;;15.23;10.90;;;0.40;99.90;;;;;;4977493;28;20208;-76
2021/12/22 02:42:42;;;;;;;15.20;10.40;;;0.40;99.90;;;;;;4978414;28;20170;-77
2021/12/22 02:45:11;;;;;;;20.53;10.40;;;0.40;99.90;;;;;;4995451;28;20232;-77
2021/12/22 02:47:37;;;;;;;16.07;9.23;;;0.30;99.90;;;;;;4996793;28;20193;-76
2021/12/22 02:50:08;;;;;;;18.98;10.38;;;0.40;99.90;;;;;;4996229;28;20216;-77
2021/12/22 02:55:41;;;;;;;12.57;9.03;;;0.40;99.90;;;;;;4978717;28;20221;-77
2021/12/22 02:58:07;;;;;;;20.70;10.33;;;0.40;99.90;;;;;;4979024;28;20229;-78
2021/12/22 03:01:01;;;;;;;18.15;10.30;;;0.30;99.90;;;;;;4979168;28;20166;-77
2021/12/22 03:05:52;;;;;;;20.45;10.68;;;0.20;99.90;;;;;;4997208;28;20193;-77
2021/12/22 03:08:18;;;;;;;20.88;9.23;;;0.20;99.90;;;;;;4996399;28;20188;-76
2021/12/22 03:10:43;;;;;;;25.30;9.73;;;0.20;99.90;;;;;;4996223;28;20664;-76
2021/12/22 03:13:09;;;;;;;19.00;10.00;;;0.40;99.90;;;;;;4996945;28;20240;-77
2021/12/22 03:15:34;;;;;;;16.20;9.43;;;0.50;99.90;;;;;;4995924;28;20173;-77
2021/12/22 03:18:02;;;;;;;14.43;9.57;;;0.50;99.90;;;;;;4996129;28;20185;-79
2021/12/22 03:20:27;;;;;;;10.90;8.43;;;0.20;99.90;;;;;;4996064;28;20158;-77
2021/12/22 03:22:53;;;;;;;19.50;9.53;;;0.30;99.90;;;;;;4995940;28;20173;-78
2021/12/22 03:25:25;;;;;;;12.97;8.87;;;0.30;99.90;;;;;;4997694;28;20176;-78
2021/12/22 03:27:52;;;;;;;18.23;9.25;;;0.30;99.90;;;;;;4999785;28;20193;-77
2021/12/22 03:30:23;;;;;;;14.50;8.37;;;0.30;99.90;;;;;;4998325;28;20209;-75
2021/12/22 03:32:49;;;;;;;14.17;8.67;;;0.30;99.90;;;;;;4998023;28;20197;-78
2021/12/22 03:35:20;;;;;;;18.67;9.23;;;0.30;99.90;;;;;;4996085;28;20176;-76
2021/12/22 03:37:55;;;;;;;12.97;9.37;;;0.20;99.90;;;;;;4996710;28;20189;-76
2021/12/22 03:40:22;;;;;;;14.77;8.50;;;0.20;99.90;;;;;;4995055;28;20195;-77
2021/12/22 03:42:48;;;;;;;17.53;9.70;;;0.40;99.90;;;;;;4996802;28;20173;-77
2021/12/22 03:45:15;;;;;;;14.93;9.10;;;0.30;99.90;;;;;;4996931;28;20176;-77
2021/12/22 03:47:41;;;;;;;13.53;8.53;;;0.20;99.90;;;;;;4996841;28;20562;-81
2021/12/22 03:50:08;;;;;;;19.17;9.48;;;0.20;99.90;;;;;;4996114;28;20208;-77
2021/12/22 03:52:34;;;;;;;17.50;7.67;;;0.40;99.90;;;;;;4996639;28;20181;-77
2021/12/22 03:55:00;;;;;;;13.20;8.48;;;0.40;99.90;;;;;;4996623;28;20173;-77
2021/12/22 03:57:27;;;;;;;11.13;8.57;;;0.40;99.90;;;;;;4996106;28;20684;-77
2021/12/22 03:59:53;;;;;;;12.83;9.03;;;0.40;99.90;;;;;;4995592;28;20185;-83
2021/12/22 04:02:21;;;;;;;14.60;9.17;;;0.40;99.90;;;;;;4996132;28;20503;-77
2021/12/22 04:04:48;;;;;;;13.15;8.05;;;0.50;99.90;;;;;;4996263;28;20204;-76
2021/12/22 04:07:15;;;;;;;11.80;7.65;;;0.30;99.90;;;;;;4996412;28;20165;-76
2021/12/22 04:09:41;;;;;;;15.83;9.00;;;0.30;99.90;;;;;;4995934;28;20205;-77
2021/12/22 04:12:07;;;;;;;12.87;8.70;;;0.30;99.90;;;;;;4996274;28;20527;-78
2021/12/22 04:14:32;;;;;;;13.67;9.30;;;0.30;99.90;;;;;;4996346;28;20180;-77
2021/12/22 04:16:58;;;;;;;17.77;9.37;;;0.40;99.90;;;;;;4996275;28;20169;-76
2021/12/22 04:19:24;;;;;;;22.45;9.68;;;0.60;99.90;;;;;;4995893;28;20696;-76
2021/12/22 04:21:50;;;;;;;15.37;9.70;;;0.70;99.90;;;;;;4996058;28;20540;-77
2021/12/22 04:24:17;;;;;;;10.97;8.97;;;0.70;99.90;;;;;;4995907;28;20571;-84
2021/12/22 04:26:43;;;;;;;20.73;9.30;;;0.50;99.90;;;;;;4996053;28;20192;-77
2021/12/22 04:29:12;;;;;;;17.77;9.73;;;0.40;99.90;;;;;;4993809;28;20239;-80
2021/12/22 04:31:39;;;;;;;17.55;10.10;;;0.50;99.90;;;;;;4995972;28;20173;-77
2021/12/22 04:34:08;;;;;;;16.05;10.50;;;0.30;99.90;;;;;;4994728;28;20177;-77
2021/12/22 04:36:35;;;;;;;22.70;10.73;;;0.20;99.90;;;;;;4995613;28;20215;-77
2021/12/22 04:39:01;;;;;;;25.63;11.32;;;0.40;99.90;;;;;;4995303;28;20189;-77
2021/12/22 04:41:27;;;;;;;33.33;10.80;;;0.60;99.90;;;;;;4995477;28;20211;-77
2021/12/22 04:43:53;;;;;;;33.72;12.52;;;0.70;99.90;;;;;;4995326;28;20618;-77
2021/12/22 04:46:20;;;;;;;27.77;12.77;;;0.60;99.90;;;;;;4995118;28;20247;-77
2021/12/22 04:48:46;;;;;;;19.67;11.47;;;0.60;99.90;;;;;;4995595;28;20216;-78
2021/12/22 04:51:24;;;;;;;19.13;11.03;;;0.70;99.90;;;;;;4994907;28;20189;-80
2021/12/22 04:56:34;;;;;;;14.40;11.07;;;0.70;99.90;;;;;;4995672;28;21218;-76
2021/12/22 04:59:00;;;;;;;20.40;10.97;;;0.80;99.90;;;;;;4995316;28;20193;-77
2021/12/22 05:01:25;;;;;;;21.43;10.50;;;0.80;99.90;;;;;;4995239;28;20600;-77
2021/12/22 05:03:51;;;;;;;27.90;10.53;;;0.80;99.90;;;;;;4994294;28;20236;-76
2021/12/22 05:06:16;;;;;;;19.75;11.07;;;1.00;99.90;;;;;;4995428;28;20178;-77
2021/12/22 05:08:42;;;;;;;18.50;10.13;;;0.80;99.90;;;;;;4994770;28;20204;-76
2021/12/22 05:11:07;;;;;;;13.37;9.67;;;0.90;99.90;;;;;;4994765;28;20276;-77
2021/12/22 05:13:35;;;;;;;18.95;9.63;;;0.70;99.90;;;;;;4995176;28;20645;-84
2021/12/22 05:16:03;;;;;;;16.57;9.93;;;0.60;99.90;;;;;;4994659;28;20247;-77
2021/12/22 05:21:22;;;;;;;14.63;9.73;;;0.40;99.90;;;;;;4963955;28;20725;-77
2021/12/22 05:23:50;;;;;;;16.08;9.10;;;0.60;99.90;;;;;;4978757;28;20169;-83
2021/12/22 05:26:16;;;;;;;19.95;9.45;;;0.40;99.90;;;;;;4976852;28;20181;-78
2021/12/22 05:28:42;;;;;;;18.65;8.18;;;0.50;99.90;;;;;;4976583;28;20288;-77
2021/12/22 05:31:07;;;;;;;18.93;9.00;;;0.60;99.90;;;;;;4989723;28;20204;-80
2021/12/22 05:33:33;;;;;;;13.90;8.98;;;0.80;99.90;;;;;;4996147;28;20179;-78
2021/12/22 05:35:59;;;;;;;27.98;9.25;;;1.00;99.90;;;;;;4995966;28;20173;-78
2021/12/22 05:38:24;;;;;;;15.10;8.65;;;1.00;99.90;;;;;;4995106;28;20672;-78
2021/12/22 05:40:50;;;;;;;15.23;9.17;;;0.90;99.90;;;;;;4994298;28;20258;-79
2021/12/22 05:43:16;;;;;;;15.23;9.45;;;0.80;99.90;;;;;;4995210;28;20181;-78
2021/12/22 05:45:41;;;;;;;19.30;9.53;;;0.70;99.90;;;;;;4996508;28;20658;-82
2021/12/22 05:48:07;;;;;;;15.13;9.73;;;0.80;99.90;;;;;;4996338;28;20772;-82
2021/12/22 05:50:33;;;;;;;15.73;8.32;;;0.90;99.90;;;;;;4996738;28;20212;-79
2021/12/22 05:52:59;;;;;;;20.63;9.18;;;0.80;99.90;;;;;;4996327;28;20225;-77
2021/12/22 05:55:24;;;;;;;15.52;9.23;;;0.90;99.90;;;;;;4996570;28;20624;-79
2021/12/22 05:57:50;;;;;;;26.20;9.02;;;0.80;99.90;;;;;;4997207;28;20189;-81
2021/12/22 06:00:16;;;;;;;21.48;10.27;;;0.90;99.90;;;;;;4995097;28;20174;-77
2021/12/22 06:02:42;;;;;;;26.17;9.20;;;0.80;99.90;;;;;;4993970;28;20618;-77
2021/12/22 06:05:08;;;;;;;20.42;9.60;;;0.60;99.90;;;;;;4993997;28;20175;-77
2021/12/22 06:07:34;;;;;;;14.33;8.97;;;0.50;99.90;;;;;;4993508;28;20670;-78
2021/12/22 06:09:59;;;;;;;11.35;7.93;;;0.50;99.90;;;;;;4993538;28;20295;-83
2021/12/22 06:12:25;;;;;;;16.17;8.70;;;0.60;99.90;;;;;;4994030;28;20539;-83
2021/12/22 06:14:50;;;;;;;14.18;7.95;;;0.70;99.90;;;;;;4992497;28;20268;-77
2021/12/22 06:17:16;;;;;;;17.10;9.02;;;0.90;99.90;;;;;;4993911;28;20165;-78
2021/12/22 06:19:42;;;;;;;13.52;8.95;;;1.20;99.90;;;;;;4994602;28;20177;-83
2021/12/22 06:22:08;;;;;;;27.13;10.03;;;1.00;99.90;;;;;;4994194;28;20173;-84
2021/12/22 06:24:33;;;;;;;18.37;8.97;;;0.80;99.90;;;;;;4998977;28;20259;-82
2021/12/22 06:26:59;;;;;;;9.77;8.23;;;0.60;99.90;;;;;;5000894;28;20196;-75
2021/12/22 06:29:26;;;;;;;20.00;9.63;;;0.30;99.90;;;;;;5000206;28;20217;-78
2021/12/22 06:31:52;;;;;;;16.83;9.35;;;0.30;99.90;;;;;;5001255;28;20177;-78
2021/12/22 06:34:18;;;;;;;17.13;9.33;;;0.20;99.90;;;;;;5000627;28;20203;-85
2021/12/22 06:36:47;;;;;;;13.97;7.60;;;0.30;99.90;;;;;;4998646;28;20227;-79
2021/12/22 06:39:15;;;;;;;23.60;7.90;;;0.30;99.90;;;;;;4998663;28;20610;-76
2021/12/22 06:41:41;;;;;;;14.67;8.60;;;0.30;99.90;;;;;;4995607;28;20220;-86
2021/12/22 06:44:06;;;;;;;16.23;10.10;;;0.30;99.90;;;;;;4996901;28;20216;-79
2021/12/22 06:46:32;;;;;;;12.07;8.13;;;0.30;99.90;;;;;;4993303;28;20176;-79
2021/12/22 06:48:58;;;;;;;15.27;9.27;;;0.40;99.90;;;;;;4993149;28;20263;-81
2021/12/22 06:51:24;;;;;;;22.47;8.83;;;0.40;99.90;;;;;;4993049;28;20176;-78
2021/12/22 06:53:50;;;;;;;16.90;8.27;;;0.40;99.90;;;;;;4992614;28;20192;-79
2021/12/22 06:56:15;;;;;;;13.83;9.23;;;0.50;99.90;;;;;;4993148;28;20248;-76
2021/12/22 06:58:41;;;;;;;13.70;9.03;;;0.60;99.90;;;;;;4992327;28;20189;-77
2021/12/22 07:01:07;;;;;;;19.42;9.27;;;0.70;99.90;;;;;;4994997;28;20256;-76
2021/12/22 07:03:32;;;;;;;13.68;8.93;;;0.90;99.90;;;;;;4992611;28;20173;-79
2021/12/22 07:06:00;;;;;;;20.65;9.68;;;0.80;99.90;;;;;;4975986;28;20185;-76
2021/12/22 07:08:25;;;;;;;11.70;8.17;;;1.00;99.90;;;;;;4979248;28;20272;-79
2021/12/22 07:10:52;;;;;;;11.10;8.40;;;0.80;99.90;;;;;;4996198;28;20659;-78
2021/12/22 07:13:17;;;;;;;17.15;9.25;;;0.70;99.90;;;;;;4994614;28;20192;-87
2021/12/22 07:15:43;;;;;;;14.33;8.33;;;0.70;99.90;;;;;;4997759;28;20622;-80
2021/12/22 07:18:12;;;;;;;17.40;9.15;;;0.80;99.90;;;;;;5000007;28;20279;-78
2021/12/22 07:20:38;;;;;;;14.73;8.17;;;0.80;99.90;;;;;;4992766;28;20172;-78
2021/12/22 07:23:04;;;;;;;17.85;9.57;;;0.80;99.90;;;;;;4992433;28;20181;-78
2021/12/22 07:25:29;;;;;;;15.90;8.23;;;0.70;99.90;;;;;;4992740;28;20173;-78
2021/12/22 07:27:55;;;;;;;15.63;9.40;;;0.70;99.90;;;;;;4991651;28;20657;-77
2021/12/22 07:30:21;;;;;;;16.93;9.97;;;0.80;99.90;;;;;;4992507;28;20208;-79
2021/12/22 07:32:46;;;;;;;25.40;8.37;;;0.80;99.90;;;;;;4992403;28;20264;-86
2021/12/22 07:35:22;;;;;;;18.37;8.10;;;1.00;99.90;;;;;;4992999;28;20224;-83
2021/12/22 07:38:06;;;;;;;19.33;7.60;;;0.90;99.90;;;;;;4992583;28;20184;-78
2021/12/22 07:40:31;;;;;;;17.90;7.60;;;1.00;99.90;;;;;;4992541;28;20248;-79
2021/12/22 07:42:57;;;;;;;15.27;8.87;;;1.10;99.90;;;;;;4992541;28;20165;-83
2021/12/22 07:45:23;;;;;;;16.23;9.07;;;1.10;99.90;;;;;;4992413;28;20169;-78
2021/12/22 07:47:48;;;;;;;31.07;9.80;;;1.10;99.90;;;;;;4990898;28;20221;-82
2021/12/22 07:50:14;;;;;;;19.60;8.83;;;1.00;99.90;;;;;;4992276;28;20243;-84
2021/12/22 07:52:39;;;;;;;23.75;9.43;;;0.90;99.90;;;;;;4992306;28;20177;-79
2021/12/22 07:55:05;;;;;;;16.80;8.33;;;1.10;99.90;;;;;;4992543;28;20169;-77
2021/12/22 07:57:31;;;;;;;22.40;9.17;;;1.20;99.90;;;;;;4992206;28;20784;-77
2021/12/22 07:59:56;;;;;;;17.05;9.77;;;1.00;99.90;;;;;;4992593;28;20177;-77
2021/12/22 08:02:22;;;;;;;26.73;11.47;;;1.00;99.90;;;;;;4991768;28;20177;-77
2021/12/22 08:04:48;;;;;;;15.85;11.00;;;1.10;99.90;;;;;;4992601;28;20181;-77
2021/12/22 08:07:13;;;;;;;11.80;9.43;;;1.10;99.90;;;;;;4992407;28;20642;-77
2021/12/22 08:09:39;;;;;;;11.73;8.17;;;1.20;99.90;;;;;;4991993;28;20371;-77
2021/12/22 08:12:05;;;;;;;18.63;8.63;;;1.20;99.90;;;;;;4995414;28;20162;-78
2021/12/22 08:14:32;;;;;;;13.27;8.63;;;1.10;99.90;;;;;;4995820;28;20252;-77
2021/12/22 08:16:58;;;;;;;14.27;8.17;;;1.00;99.90;;;;;;4996679;28;20181;-82
2021/12/22 08:19:24;;;;;;;12.52;8.38;;;1.10;99.90;;;;;;4994306;28;20205;-78
2021/12/22 08:21:50;;;;;;;15.32;8.00;;;1.10;99.90;;;;;;4996598;28;20244;-78
2021/12/22 08:24:15;;;;;;;12.52;8.13;;;1.30;99.90;;;;;;4995386;28;20208;-77
2021/12/22 08:26:41;;;;;;;19.95;7.85;;;1.30;99.90;;;;;;4994323;28;20173;-77
2021/12/22 08:29:07;;;;;;;13.57;8.50;;;1.40;99.90;;;;;;4995693;28;20217;-79
2021/12/22 08:31:32;;;;;;;18.30;8.57;;;1.50;99.90;;;;;;4995897;28;20161;-84
2021/12/22 08:33:58;;;;;;;27.23;8.20;;;1.60;99.90;;;;;;4995438;28;20535;-77
2021/12/22 08:39:10;;;;;;;12.63;8.40;;;1.90;99.90;;;;;;4995617;28;20219;-85
2021/12/22 08:41:40;;;;;;;17.60;7.90;;;1.80;99.90;;;;;;4994784;28;20626;-79
2021/12/22 08:44:08;;;;;;;16.67;7.67;;;1.70;99.90;;;;;;4994163;28;20169;-77
2021/12/22 08:46:37;;;;;;;10.00;7.32;;;1.40;99.90;;;;;;4994511;28;20168;-82
2021/12/22 08:49:05;;;;;;;14.85;8.27;;;1.30;99.90;;;;;;4994723;28;20204;-77
2021/12/22 08:51:30;;;;;;;19.98;8.75;;;1.50;99.90;;;;;;4995303;28;20168;-78
2021/12/22 08:53:56;;;;;;;16.27;10.00;;;1.80;99.90;;;;;;4996943;28;20243;-77
2021/12/22 08:56:22;;;;;;;22.77;10.70;;;1.70;99.90;;;;;;5000734;28;20173;-77
2021/12/22 08:58:48;;;;;;;15.63;10.68;;;2.00;99.90;;;;;;4998484;28;20201;-82
2021/12/22 09:01:14;;;;;;;17.48;9.20;;;1.90;99.90;;;;;;4997323;28;20228;-79
2021/12/22 09:03:40;;;;;;;16.15;9.88;;;2.00;99.90;;;;;;4995629;28;20204;-77
2021/12/22 09:06:05;;;;;;;17.30;11.63;;;2.10;99.90;;;;;;4998580;28;20646;-77
2021/12/22 09:08:31;;;;;;;16.17;9.52;;;2.20;99.90;;;;;;4995904;28;20244;-77
2021/12/22 09:10:57;;;;;;;15.40;8.40;;;2.40;99.90;;;;;;4995010;28;20192;-77
2021/12/22 09:13:23;;;;;;;17.83;8.57;;;2.30;99.90;;;;;;4995505;28;20252;-77
2021/12/22 09:15:49;;;;;;;11.88;7.50;;;2.30;99.90;;;;;;4997058;28;20177;-77
2021/12/22 09:18:16;;;;;;;9.90;7.07;;;2.30;99.90;;;;;;4997453;28;20243;-79
2021/12/22 09:20:42;;;;;;;15.50;7.65;;;2.40;99.90;;;;;;4995203;28;20224;-77
2021/12/22 09:23:08;;;;;;;13.25;7.82;;;2.50;99.90;;;;;;4993672;28;20532;-77
2021/12/22 09:25:33;;;;;;;21.23;7.82;;;2.60;99.90;;;;;;4994799;28;20196;-83
2021/12/22 09:28:00;;;;;;;17.98;7.70;;;2.60;99.90;;;;;;4994969;28;20189;-78
2021/12/22 09:30:27;;;;;;;16.70;8.10;;;2.60;99.90;;;;;;4994502;28;20213;-77
2021/12/22 09:32:54;;;;;;;9.40;6.72;;;2.60;99.90;;;;;;4995476;28;20172;-80
2021/12/22 09:35:21;;;;;;;15.25;7.95;;;2.70;99.90;;;;;;4994863;28;20177;-81
2021/12/22 09:37:46;;;;;;;14.27;8.23;;;2.70;99.90;;;;;;4997359;28;20252;-80
2021/12/22 09:40:12;;;;;;;12.85;7.38;;;2.70;99.90;;;;;;5011706;28;20177;-76
2021/12/22 09:42:38;;;;;;;22.10;8.88;;;2.80;99.90;;;;;;5003223;28;20181;-77
2021/12/22 09:45:04;;;;;;;10.13;7.88;;;2.70;99.90;;;;;;4993944;28;20176;-81
2021/12/22 09:47:38;;;;;;;17.05;9.68;;;2.70;99.90;;;;;;4992727;28;20197;-77
2021/12/22 09:52:30;;;;;;;13.68;7.88;;;2.60;99.90;;;;;;4994212;28;20265;-76
2021/12/22 09:54:59;;;;;;;20.77;8.05;;;2.70;99.90;;;;;;4991729;28;20189;-80
2021/12/22 09:57:26;;;;;;;12.60;9.13;;;2.90;99.90;;;;;;4993394;28;20243;-83
2021/12/22 09:59:54;;;;;;;15.75;7.28;;;3.00;99.90;;;;;;4992452;28;20319;-80
2021/12/22 10:02:22;;;;;;;12.98;7.40;;;3.00;99.90;;;;;;4993519;28;20173;-78
2021/12/22 10:04:48;;;;;;;14.55;8.18;;;3.00;99.90;;;;;;4993188;28;20510;-78
2021/12/22 10:07:23;;;;;;;14.73;8.95;;;2.80;99.90;;;;;;4991143;28;20672;-80
2021/12/22 10:09:49;;;;;;;23.85;11.00;;;2.80;99.90;;;;;;4989745;28;20208;-79
2021/12/22 10:12:19;;;;;;;14.32;9.00;;;2.90;99.90;;;;;;4993841;28;20180;-79
2021/12/22 10:14:48;;;;;;;11.52;8.55;;;3.00;99.90;;;;;;4993257;28;20263;-78
2021/12/22 10:17:33;;;;;;;15.27;8.82;;;3.10;99.90;;;;;;4993137;28;20259;-77
2021/12/22 10:20:01;;;;;;;10.32;7.88;;;3.20;99.90;;;;;;4988100;28;20196;-78
2021/12/22 10:22:33;;;;;;;14.63;8.27;;;3.30;99.90;;;;;;4993747;28;20170;-77
2021/12/22 10:25:08;;;;;;;16.48;8.43;;;3.40;99.90;;;;;;4988352;28;20239;-76
2021/12/22 10:27:34;;;;;;;15.25;7.78;;;3.50;99.90;;;;;;4988780;28;20224;-81
2021/12/22 10:30:18;;;;;;;18.73;7.78;;;3.60;99.90;;;;;;4991385;28;20211;-77
2021/12/22 10:32:44;;;;;;;11.48;6.55;;;3.50;99.90;;;;;;4992783;28;20257;-79
2021/12/22 10:35:09;;;;;;;8.35;6.45;;;3.60;99.90;;;;;;4991169;28;20315;-78
2021/12/22 10:37:39;;;;;;;14.13;7.05;;;3.70;99.90;;;;;;4990477;28;20851;-78
2021/12/22 10:40:22;;;;;;;11.93;6.75;;;3.60;99.90;;;;;;4991902;28;20236;-77
2021/12/22 10:42:48;;;;;;;11.15;7.22;;;3.60;99.90;;;;;;4989533;28;20681;-79
2021/12/22 10:45:15;;;;;;;13.05;7.97;;;3.80;99.90;;;;;;4992948;28;20201;-77
2021/12/22 10:50:57;;;;;;;13.48;8.65;;;4.10;99.90;;;;;;4991936;28;20251;-79
2021/12/22 10:53:24;;;;;;;11.18;7.95;;;4.10;99.90;;;;;;4992432;28;20192;-82
2021/12/22 10:55:53;;;;;;;12.45;8.13;;;4.00;99.90;;;;;;4990588;28;20705;-79
2021/12/22 10:58:23;;;;;;;16.17;10.07;;;4.00;99.90;;;;;;4987583;28;20603;-79
2021/12/22 11:01:11;;;;;;;17.88;9.57;;;4.00;99.90;;;;;;4990346;28;20165;-78
2021/12/22 11:03:54;;;;;;;15.70;9.38;;;4.10;99.90;;;;;;4991348;28;20215;-77
2021/12/22 11:06:33;;;;;;;12.00;7.55;;;4.20;99.90;;;;;;4992739;28;20247;-79
2021/12/22 11:09:02;;;;;;;17.60;8.63;;;4.10;99.90;;;;;;4993158;28;20715;-79
2021/12/22 11:11:34;;;;;;;12.98;7.68;;;4.20;99.90;;;;;;4993666;28;20327;-82
2021/12/22 11:14:11;;;;;;;11.07;8.52;;;4.20;99.90;;;;;;4992878;28;20522;-78
2021/12/22 11:16:52;;;;;;;12.73;7.43;;;4.20;99.90;;;;;;4993270;28;20187;-78
2021/12/22 11:19:18;;;;;;;14.18;9.02;;;4.20;99.90;;;;;;4992419;28;20602;-76
2021/12/22 11:22:00;;;;;;;13.50;7.72;;;4.20;99.90;;;;;;4992881;28;20252;-77
2021/12/22 11:24:27;;;;;;;8.95;6.97;;;4.20;99.90;;;;;;4991964;28;20173;-81
2021/12/22 11:26:54;;;;;;;10.13;7.20;;;4.30;99.90;;;;;;4991583;28;20522;-77
2021/12/22 11:29:20;;;;;;;20.33;7.78;;;4.40;99.90;;;;;;4992229;28;20216;-80
2021/12/22 11:31:47;;;;;;;13.88;7.75;;;4.40;99.90;;;;;;4991474;28;20169;-78
2021/12/22 11:34:15;;;;;;;12.07;7.15;;;4.50;99.90;;;;;;4992258;28;20252;-76
2021/12/22 11:36:40;;;;;;;10.57;7.45;;;4.50;99.90;;;;;;4990017;28;20181;-76
2021/12/22 11:39:07;;;;;;;15.57;8.43;;;4.50;99.90;;;;;;4992027;28;20211;-79
2021/12/22 11:41:42;;;;;;;16.65;7.38;;;4.40;99.90;;;;;;4991885;28;20173;-85
2021/12/22 11:44:08;;;;;;;11.68;6.97;;;4.60;99.90;;;;;;4992897;28;20256;-77
2021/12/22 11:46:35;;;;;;;13.13;7.25;;;4.80;99.90;;;;;;4995502;28;20197;-76
2021/12/22 11:49:01;;;;;;;14.60;9.18;;;5.00;99.90;;;;;;4995841;28;20221;-76
2021/12/22 11:51:29;;;;;;;24.08;9.02;;;5.00;99.90;;;;;;4995877;28;20181;-79
2021/12/22 11:53:58;;;;;;;14.60;8.48;;;5.00;99.90;;;;;;4983050;28;20185;-77
2021/12/22 11:56:47;;;;;;;16.30;7.07;;;5.10;99.90;;;;;;4993701;28;20537;-79
2021/12/22 11:59:37;;;;;;;10.82;6.40;;;5.20;99.90;;;;;;4994463;28;20251;-77
2021/12/22 12:02:21;;;;;;;9.05;6.13;;;5.00;99.90;;;;;;4988824;28;20543;-80
2021/12/22 12:04:52;;;;;;;7.72;5.40;;;4.90;99.90;;;;;;4999279;28;20494;-77
2021/12/22 12:07:39;;;;;;;18.30;5.57;;;5.00;99.90;;;;;;4994582;28;20185;-77
2021/12/22 12:10:36;;;;;;;11.13;5.47;;;5.10;99.90;;;;;;4994864;28;20217;-79
2021/12/22 12:13:14;;;;;;;7.32;5.97;;;5.10;99.90;;;;;;4996325;28;20196;-78
2021/12/22 12:21:51;;;;;;;10.45;6.10;;;5.30;99.90;;;;;;4995327;28;20192;-77
2021/12/22 12:24:35;;;;;;;8.35;5.43;;;5.40;99.90;;;;;;4995514;28;20216;-77
2021/12/22 12:27:22;;;;;;;8.10;5.28;;;5.30;99.90;;;;;;4995996;28;20181;-77
2021/12/22 12:30:24;;;;;;;13.50;5.78;;;5.40;99.90;;;;;;4994575;28;20209;-79
2021/12/22 12:32:50;;;;;;;18.20;6.55;;;5.50;99.90;;;;;;4954743;28;20204;-82
2021/12/22 12:35:26;;;;;;;8.18;6.20;;;5.60;99.90;;;;;;4995718;28;20181;-77
2021/12/22 12:38:01;;;;;;;9.68;6.53;;;5.70;99.90;;;;;;5001315;28;20284;-77
2021/12/22 12:41:00;;;;;;;10.85;6.05;;;5.50;99.90;;;;;;4996339;28;20701;-80
2021/12/22 12:43:44;;;;;;;8.60;5.90;;;5.50;99.90;;;;;;4994492;28;20173;-79
2021/12/22 12:49:08;;;;;;;9.60;6.20;;;5.60;99.90;;;;;;4993734;28;20287;-84
2021/12/22 12:51:45;;;;;;;21.25;6.25;;;5.50;99.90;;;;;;4993457;28;20177;-83
2021/12/22 12:54:17;;;;;;;14.32;6.30;;;5.30;99.90;;;;;;4993431;28;20279;-79
2021/12/22 12:56:44;;;;;;;22.10;7.32;;;5.00;99.90;;;;;;4995009;28;20165;-77
2021/12/22 12:59:14;;;;;;;10.05;7.10;;;4.60;99.90;;;;;;4995526;28;20720;-78
2021/12/22 13:01:52;;;;;;;17.20;7.10;;;4.60;99.90;;;;;;4995095;28;20173;-80
2021/12/22 13:04:20;;;;;;;10.13;6.50;;;4.80;99.90;;;;;;4995100;28;20197;-81
2021/12/22 13:06:46;;;;;;;7.38;6.05;;;4.80;99.90;;;;;;4993460;28;20192;-83
2021/12/22 13:09:46;;;;;;;11.88;7.05;;;4.80;99.90;;;;;;4994731;28;20205;-76
2021/12/22 13:17:58;;;;;;;16.42;8.38;;;5.20;99.90;;;;;;4995177;28;20335;-78
2021/12/22 13:20:28;;;;;;;16.02;6.55;;;5.10;99.90;;;;;;4995529;28;20223;-82
2021/12/22 13:22:56;;;;;;;11.80;7.45;;;5.00;99.90;;;;;;4992970;28;20181;-80
2021/12/22 13:25:37;;;;;;;12.20;7.50;;;4.70;99.90;;;;;;4994473;28;20161;-83
2021/12/22 13:28:08;;;;;;;18.00;7.60;;;4.80;99.90;;;;;;4992632;28;20645;-84
2021/12/22 13:30:47;;;;;;;9.98;7.57;;;4.90;99.90;;;;;;4994083;28;20209;-82
2021/12/22 13:33:34;;;;;;;14.18;7.43;;;4.90;99.90;;;;;;4992682;28;20199;-81
2021/12/22 13:36:05;;;;;;;7.75;6.50;;;5.00;99.90;;;;;;4994000;28;20157;-81
2021/12/22 13:38:42;;;;;;;14.35;7.55;;;5.00;99.90;;;;;;5006262;28;20196;-79